Cleveland, OH (44147)

5:11 AM EDT on September 04, 2015 (GMT -0400)
KOHBROAD2 | | Change Station
CLOSE
Current Station
Personal Weather Station
Location: Broadview Heights, OH
Elevation: 1152 ft
Nearby Weather Stations

Elev 1152 ft 41.28 °N, 81.70 °W | Updated 14 seconds ago

Rain
Rain
65.5 °F
Feels Like 65.5 °F
N
0.0
Wind Variable Wind from NE
Gusts 0.0 mph

Today
High -- | Low -- °F
--% Chance of Precip.
Yesterday
High -- | Low -- °F
Precip. -- in
6:55 AM 7:55 PM
Waning Gibbous, 61% visible
Pressure 30.00 in
Visibility 9.0 miles
Clouds Scattered Clouds 5000 ft
Mostly Cloudy 7000 ft
Mostly Cloudy 12000 ft
Overcast 14000 ft
Dew Point 66 °F
Humidity 98%
Rainfall 0.29 in
Snow Depth Not available.
UV 0 out of 12
Pollen 9.60 out of 12
Air Quality Not available.
Flu Activity Not available.
METAR KCLE 040851Z 16004KT 9SM -TSRA SCT050CB BKN070 BKN120 OVC140 20/19 A3002 RMK AO2 TSB36 SLP159 OCNL LTGIC VC SW TS VC SW MOV SE P0006 60011 T02000189 50002
Pressure 30.00 in
Visibility 9.0 miles
Clouds Scattered Clouds 5000 ft
Mostly Cloudy 7000 ft
Mostly Cloudy 12000 ft
Overcast 14000 ft
Dew Point 66 °F
Humidity 98%
Rainfall 0.29 in
Snow Depth Not available.
UV 0 out of 12
Pollen 9.60 out of 12
Air Quality Not available.
Flu Activity Not available.
METAR KCLE 040851Z 16004KT 9SM -TSRA SCT050CB BKN070 BKN120 OVC140 20/19 A3002 RMK AO2 TSB36 SLP159 OCNL LTGIC VC SW TS VC SW MOV SE P0006 60011 T02000189 50002

10-Day Weather Forecast

×

Almanac

Astronomy

Sep. 04, 2015 Rise Set
Actual Time
Civil Twilight
Nautical Twilight
Astronomical Twilight
Moon
Length of Visible Light
Length of Day
Tomorrow will be .
, % of the Moon is Illuminated

Today's Extremes

State Highs State Lows

Community

WunderPhotos

Upload Photos

1,852,142 photos uploaded!

WunderBlogs® & News

Nearby

Air Quality

  Air Quality AQ Index Pollutant
Not available.

Snow Depth

Station Depth Elevation

Earthquake Activity

City Distance Mag. Time & Date
Minimum magnitude displayed is 2.5.

Coastal Water Temperatures

Place Temperature

Stations

Nearby Weather Stations

Station Location Temp. Windchill Dew Point Humidity Wind Precip. Elev Updated Type